sensor_id;sensor_type;location;lat;lon;timestamp;P1;durP1;ratioP1;P2;durP2;ratioP2
8538;SDS011;4307;53.868;11.680;2022-08-18T14:33:37;7.88;;;7.18;;
8538;SDS011;4307;53.868;11.680;2022-08-18T14:36:04;8.38;;;7.53;;
8538;SDS011;4307;53.868;11.680;2022-08-18T14:38:30;8.63;;;7.85;;
8538;SDS011;4307;53.868;11.680;2022-08-18T14:40:57;8.32;;;7.60;;
8538;SDS011;4307;53.868;11.680;2022-08-18T14:43:27;9.18;;;7.60;;
8538;SDS011;4307;53.868;11.680;2022-08-18T14:45:53;9.27;;;8.27;;
8538;SDS011;4307;53.868;11.680;2022-08-18T14:48:20;8.40;;;7.70;;
8538;SDS011;4307;53.868;11.680;2022-08-18T14:50:49;10.63;;;7.65;;
8538;SDS011;4307;53.868;11.680;2022-08-18T14:53:20;14.60;;;7.93;;
8538;SDS011;4307;53.868;11.680;2022-08-18T14:55:49;9.02;;;7.97;;
8538;SDS011;4307;53.868;11.680;2022-08-18T14:58:17;13.60;;;8.85;;
8538;SDS011;4307;53.868;11.680;2022-08-18T15:00:44;13.77;;;9.70;;
8538;SDS011;4307;53.868;11.680;2022-08-18T15:03:11;15.20;;;10.93;;
8538;SDS011;4307;53.868;11.680;2022-08-18T15:05:38;11.05;;;9.95;;
8538;SDS011;4307;53.868;11.680;2022-08-18T15:08:06;12.27;;;11.00;;
8538;SDS011;4307;53.868;11.680;2022-08-18T15:10:33;10.77;;;9.73;;
8538;SDS011;4307;53.868;11.680;2022-08-18T15:13:00;12.57;;;11.30;;
8538;SDS011;4307;53.868;11.680;2022-08-18T15:15:26;13.00;;;10.27;;
8538;SDS011;4307;53.868;11.680;2022-08-18T15:17:53;15.30;;;11.48;;
8538;SDS011;4307;53.868;11.680;2022-08-18T15:20:21;12.43;;;11.07;;
8538;SDS011;4307;53.868;11.680;2022-08-18T15:22:49;11.88;;;10.70;;
8538;SDS011;4307;53.868;11.680;2022-08-18T15:25:35;12.52;;;11.20;;
8538;SDS011;4307;53.868;11.680;2022-08-18T15:28:06;18.25;;;12.10;;
8538;SDS011;4307;53.868;11.680;2022-08-18T15:30:33;14.93;;;12.63;;
8538;SDS011;4307;53.868;11.680;2022-08-18T15:33:01;12.67;;;11.47;;
8538;SDS011;4307;53.868;11.680;2022-08-18T15:35:28;14.03;;;12.60;;
8538;SDS011;4307;53.868;11.680;2022-08-18T15:37:55;13.67;;;12.37;;
8538;SDS011;4307;53.868;11.680;2022-08-18T15:40:23;14.53;;;13.03;;
8538;SDS011;4307;53.868;11.680;2022-08-18T15:42:53;14.20;;;12.60;;
8538;SDS011;4307;53.868;11.680;2022-08-18T15:45:22;13.13;;;11.70;;
8538;SDS011;4307;53.868;11.680;2022-08-18T15:47:52;13.37;;;12.03;;
8538;SDS011;4307;53.868;11.680;2022-08-18T15:50:20;12.57;;;10.47;;
8538;SDS011;4307;53.868;11.680;2022-08-18T15:52:47;14.30;;;11.73;;
8538;SDS011;4307;53.868;11.680;2022-08-18T15:55:15;12.23;;;11.03;;
8538;SDS011;4307;53.868;11.680;2022-08-18T15:57:42;14.43;;;10.47;;
8538;SDS011;4307;53.868;11.680;2022-08-18T16:00:12;15.33;;;9.93;;
8538;SDS011;4307;53.868;11.680;2022-08-18T16:02:41;12.67;;;10.70;;
8538;SDS011;4307;53.868;11.680;2022-08-18T16:05:12;11.17;;;10.10;;
8538;SDS011;4307;53.868;11.680;2022-08-18T16:07:39;10.93;;;9.73;;
8538;SDS011;4307;53.868;11.680;2022-08-18T16:10:08;11.00;;;9.97;;
8538;SDS011;4307;53.868;11.680;2022-08-18T16:12:34;12.67;;;10.30;;
8538;SDS011;4307;53.868;11.680;2022-08-18T16:15:01;13.60;;;10.57;;
8538;SDS011;4307;53.868;11.680;2022-08-18T16:17:30;11.20;;;10.10;;
8538;SDS011;4307;53.868;11.680;2022-08-18T16:19:57;12.53;;;11.23;;
8538;SDS011;4307;53.868;11.680;2022-08-18T16:22:25;11.67;;;10.27;;
8538;SDS011;4307;53.868;11.680;2022-08-18T16:24:52;10.53;;;9.40;;
8538;SDS011;4307;53.868;11.680;2022-08-18T16:27:19;11.33;;;9.77;;
8538;SDS011;4307;53.868;11.680;2022-08-18T16:29:46;12.13;;;10.93;;
8538;SDS011;4307;53.868;11.680;2022-08-18T16:32:13;11.37;;;10.17;;
8538;SDS011;4307;53.868;11.680;2022-08-18T16:34:41;15.57;;;11.47;;
8538;SDS011;4307;53.868;11.680;2022-08-18T16:37:08;11.40;;;10.20;;
8538;SDS011;4307;53.868;11.680;2022-08-18T16:39:35;12.97;;;10.27;;
8538;SDS011;4307;53.868;11.680;2022-08-18T16:42:02;14.43;;;11.70;;
8538;SDS011;4307;53.868;11.680;2022-08-18T16:44:30;14.47;;;10.90;;
8538;SDS011;4307;53.868;11.680;2022-08-18T16:46:57;12.20;;;10.90;;
8538;SDS011;4307;53.868;11.680;2022-08-18T16:49:25;13.83;;;11.43;;
8538;SDS011;4307;53.868;11.680;2022-08-18T16:51:53;13.53;;;10.57;;
8538;SDS011;4307;53.868;11.680;2022-08-18T16:54:20;12.70;;;11.37;;
8538;SDS011;4307;53.868;11.680;2022-08-18T16:56:47;13.27;;;11.53;;
8538;SDS011;4307;53.868;11.680;2022-08-18T16:59:14;15.63;;;10.67;;
8538;SDS011;4307;53.868;11.680;2022-08-18T17:01:58;13.10;;;11.20;;
8538;SDS011;4307;53.868;11.680;2022-08-18T17:04:42;13.83;;;11.60;;
8538;SDS011;4307;53.868;11.680;2022-08-18T17:07:10;14.00;;;11.20;;
8538;SDS011;4307;53.868;11.680;2022-08-18T17:09:37;14.27;;;10.80;;
8538;SDS011;4307;53.868;11.680;2022-08-18T17:12:04;13.60;;;11.17;;
8538;SDS011;4307;53.868;11.680;2022-08-18T17:14:31;13.40;;;11.03;;
8538;SDS011;4307;53.868;11.680;2022-08-18T17:16:57;14.53;;;11.80;;
8538;SDS011;4307;53.868;11.680;2022-08-18T17:19:25;13.37;;;11.50;;
8538;SDS011;4307;53.868;11.680;2022-08-18T17:21:57;15.47;;;9.70;;
8538;SDS011;4307;53.868;11.680;2022-08-18T17:24:25;12.80;;;10.37;;
8538;SDS011;4307;53.868;11.680;2022-08-18T17:26:54;11.57;;;10.37;;
8538;SDS011;4307;53.868;11.680;2022-08-18T17:29:25;13.57;;;11.10;;
8538;SDS011;4307;53.868;11.680;2022-08-18T17:31:57;12.10;;;10.87;;
8538;SDS011;4307;53.868;11.680;2022-08-18T17:34:26;14.67;;;10.97;;
8538;SDS011;4307;53.868;11.680;2022-08-18T17:36:57;12.30;;;10.17;;
8538;SDS011;4307;53.868;11.680;2022-08-18T17:39:28;11.93;;;10.73;;
8538;SDS011;4307;53.868;11.680;2022-08-18T17:41:58;13.47;;;10.00;;
8538;SDS011;4307;53.868;11.680;2022-08-18T17:44:44;13.10;;;10.47;;
8538;SDS011;4307;53.868;11.680;2022-08-18T17:47:13;11.17;;;10.07;;
8538;SDS011;4307;53.868;11.680;2022-08-18T17:49:44;11.23;;;10.07;;
8538;SDS011;4307;53.868;11.680;2022-08-18T17:52:30;10.40;;;9.40;;
8538;SDS011;4307;53.868;11.680;2022-08-18T17:55:06;12.50;;;10.00;;
8538;SDS011;4307;53.868;11.680;2022-08-18T17:57:38;11.07;;;10.07;;
8538;SDS011;4307;53.868;11.680;2022-08-18T18:00:13;12.23;;;11.13;;
8538;SDS011;4307;53.868;11.680;2022-08-18T18:02:42;11.77;;;10.63;;
8538;SDS011;4307;53.868;11.680;2022-08-18T18:05:10;11.83;;;10.63;;
8538;SDS011;4307;53.868;11.680;2022-08-18T18:07:51;12.63;;;10.37;;
8538;SDS011;4307;53.868;11.680;2022-08-18T18:10:24;11.47;;;10.33;;
8538;SDS011;4307;53.868;11.680;2022-08-18T18:13:11;11.73;;;10.60;;
8538;SDS011;4307;53.868;11.680;2022-08-18T18:15:46;13.03;;;11.27;;
8538;SDS011;4307;53.868;11.680;2022-08-18T18:21:16;14.00;;;11.03;;
8538;SDS011;4307;53.868;11.680;2022-08-18T18:23:46;12.40;;;10.70;;
8538;SDS011;4307;53.868;11.680;2022-08-18T18:26:20;11.97;;;10.77;;
8538;SDS011;4307;53.868;11.680;2022-08-18T18:28:58;13.60;;;10.70;;
8538;SDS011;4307;53.868;11.680;2022-08-18T18:31:37;11.87;;;10.77;;
8538;SDS011;4307;53.868;11.680;2022-08-18T18:34:04;13.50;;;11.67;;
8538;SDS011;4307;53.868;11.680;2022-08-18T18:36:41;12.37;;;11.07;;
8538;SDS011;4307;53.868;11.680;2022-08-18T18:39:13;16.30;;;12.73;;
8538;SDS011;4307;53.868;11.680;2022-08-18T18:41:45;15.13;;;11.57;;
8538;SDS011;4307;53.868;11.680;2022-08-18T18:44:12;14.10;;;11.40;;
8538;SDS011;4307;53.868;11.680;2022-08-18T18:46:42;14.70;;;12.07;;
8538;SDS011;4307;53.868;11.680;2022-08-18T18:49:14;15.87;;;11.20;;
8538;SDS011;4307;53.868;11.680;2022-08-18T18:51:50;13.60;;;11.80;;
8538;SDS011;4307;53.868;11.680;2022-08-18T18:54:50;11.80;;;10.70;;
8538;SDS011;4307;53.868;11.680;2022-08-18T18:57:28;14.40;;;10.97;;
8538;SDS011;4307;53.868;11.680;2022-08-18T19:00:04;13.47;;;12.17;;
8538;SDS011;4307;53.868;11.680;2022-08-18T19:02:44;12.97;;;11.67;;
8538;SDS011;4307;53.868;11.680;2022-08-18T19:05:19;13.07;;;11.67;;
8538;SDS011;4307;53.868;11.680;2022-08-18T19:07:54;12.47;;;10.60;;
8538;SDS011;4307;53.868;11.680;2022-08-18T19:10:28;15.60;;;11.67;;
8538;SDS011;4307;53.868;11.680;2022-08-18T19:13:03;12.70;;;11.10;;
8538;SDS011;4307;53.868;11.680;2022-08-18T19:15:37;13.57;;;11.57;;
8538;SDS011;4307;53.868;11.680;2022-08-18T19:18:09;16.80;;;11.70;;
8538;SDS011;4307;53.868;11.680;2022-08-18T19:20:48;14.77;;;11.83;;
8538;SDS011;4307;53.868;11.680;2022-08-18T19:23:18;15.23;;;11.90;;
8538;SDS011;4307;53.868;11.680;2022-08-18T19:25:51;18.33;;;12.57;;
8538;SDS011;4307;53.868;11.680;2022-08-18T19:28:23;14.17;;;12.23;;
8538;SDS011;4307;53.868;11.680;2022-08-18T19:30:57;15.57;;;12.57;;
8538;SDS011;4307;53.868;11.680;2022-08-18T19:33:31;13.37;;;11.97;;
8538;SDS011;4307;53.868;11.680;2022-08-18T19:36:07;13.07;;;11.60;;
8538;SDS011;4307;53.868;11.680;2022-08-18T19:38:44;12.90;;;11.30;;
8538;SDS011;4307;53.868;11.680;2022-08-18T19:41:19;14.93;;;12.13;;
8538;SDS011;4307;53.868;11.680;2022-08-18T19:43:57;14.60;;;10.97;;
8538;SDS011;4307;53.868;11.680;2022-08-18T19:46:31;16.03;;;12.47;;
8538;SDS011;4307;53.868;11.680;2022-08-18T19:49:05;15.27;;;12.03;;
8538;SDS011;4307;53.868;11.680;2022-08-18T19:51:42;16.10;;;12.80;;
8538;SDS011;4307;53.868;11.680;2022-08-18T19:54:15;13.57;;;11.77;;
8538;SDS011;4307;53.868;11.680;2022-08-18T19:56:58;13.43;;;12.23;;
8538;SDS011;4307;53.868;11.680;2022-08-18T20:02:41;14.20;;;12.70;;
8538;SDS011;4307;53.868;11.680;2022-08-18T20:05:34;13.97;;;12.13;;
8538;SDS011;4307;53.868;11.680;2022-08-18T20:08:21;14.90;;;12.87;;
8538;SDS011;4307;53.868;11.680;2022-08-18T20:11:13;16.73;;;13.97;;
8538;SDS011;4307;53.868;11.680;2022-08-18T20:13:57;17.93;;;13.50;;
8538;SDS011;4307;53.868;11.680;2022-08-18T20:16:28;15.87;;;14.07;;
8538;SDS011;4307;53.868;11.680;2022-08-18T20:18:58;15.00;;;13.30;;
8538;SDS011;4307;53.868;11.680;2022-08-18T20:21:39;19.60;;;13.43;;
8538;SDS011;4307;53.868;11.680;2022-08-18T20:24:14;13.67;;;11.90;;
8538;SDS011;4307;53.868;11.680;2022-08-18T20:27:12;16.57;;;14.87;;
8538;SDS011;4307;53.868;11.680;2022-08-18T20:30:03;20.40;;;14.33;;
8538;SDS011;4307;53.868;11.680;2022-08-18T20:35:58;18.47;;;16.10;;
8538;SDS011;4307;53.868;11.680;2022-08-18T20:38:32;19.93;;;15.00;;
8538;SDS011;4307;53.868;11.680;2022-08-18T20:43:52;18.43;;;15.57;;
8538;SDS011;4307;53.868;11.680;2022-08-18T20:46:25;19.40;;;16.07;;
8538;SDS011;4307;53.868;11.680;2022-08-18T20:49:04;17.47;;;15.67;;
8538;SDS011;4307;53.868;11.680;2022-08-18T20:51:39;20.30;;;15.83;;
8538;SDS011;4307;53.868;11.680;2022-08-18T20:54:20;19.27;;;16.03;;
8538;SDS011;4307;53.868;11.680;2022-08-18T20:56:56;22.10;;;16.20;;
8538;SDS011;4307;53.868;11.680;2022-08-18T20:59:28;19.30;;;16.23;;
8538;SDS011;4307;53.868;11.680;2022-08-18T21:01:58;19.00;;;15.30;;
8538;SDS011;4307;53.868;11.680;2022-08-18T21:04:45;18.13;;;16.23;;
8538;SDS011;4307;53.868;11.680;2022-08-18T21:07:17;17.67;;;15.47;;
8538;SDS011;4307;53.868;11.680;2022-08-18T21:09:50;17.40;;;14.73;;
8538;SDS011;4307;53.868;11.680;2022-08-18T21:12:19;20.77;;;16.30;;
8538;SDS011;4307;53.868;11.680;2022-08-18T21:14:49;20.00;;;16.80;;
8538;SDS011;4307;53.868;11.680;2022-08-18T21:17:18;17.50;;;15.63;;
8538;SDS011;4307;53.868;11.680;2022-08-18T21:19:46;18.80;;;16.50;;
8538;SDS011;4307;53.868;11.680;2022-08-18T21:22:12;21.23;;;17.20;;
8538;SDS011;4307;53.868;11.680;2022-08-18T21:24:40;20.83;;;17.47;;
8538;SDS011;4307;53.868;11.680;2022-08-18T21:27:11;20.00;;;17.83;;
8538;SDS011;4307;53.868;11.680;2022-08-18T21:29:45;22.47;;;17.53;;
8538;SDS011;4307;53.868;11.680;2022-08-18T21:32:16;19.20;;;17.20;;
8538;SDS011;4307;53.868;11.680;2022-08-18T21:34:46;19.87;;;16.83;;
8538;SDS011;4307;53.868;11.680;2022-08-18T21:37:15;21.50;;;15.30;;
8538;SDS011;4307;53.868;11.680;2022-08-18T21:39:47;18.20;;;15.63;;
8538;SDS011;4307;53.868;11.680;2022-08-18T21:42:17;22.23;;;16.50;;
8538;SDS011;4307;53.868;11.680;2022-08-18T21:44:46;21.40;;;16.10;;
8538;SDS011;4307;53.868;11.680;2022-08-18T21:47:19;18.27;;;16.27;;
8538;SDS011;4307;53.868;11.680;2022-08-18T21:50:01;18.73;;;16.00;;
8538;SDS011;4307;53.868;11.680;2022-08-18T21:52:35;19.97;;;15.10;;
8538;SDS011;4307;53.868;11.680;2022-08-18T21:55:04;19.87;;;15.53;;
8538;SDS011;4307;53.868;11.680;2022-08-18T21:57:47;18.83;;;15.40;;
8538;SDS011;4307;53.868;11.680;2022-08-18T22:00:18;17.50;;;14.93;;
8538;SDS011;4307;53.868;11.680;2022-08-18T22:02:49;16.60;;;14.00;;
8538;SDS011;4307;53.868;11.680;2022-08-18T22:05:37;17.37;;;10.80;;
8538;SDS011;4307;53.868;11.680;2022-08-18T22:08:13;14.53;;;10.40;;
8538;SDS011;4307;53.868;11.680;2022-08-18T22:10:41;7.03;;;5.60;;
8538;SDS011;4307;53.868;11.680;2022-08-18T22:13:26;8.13;;;5.47;;
8538;SDS011;4307;53.868;11.680;2022-08-18T22:16:22;8.87;;;5.40;;
8538;SDS011;4307;53.868;11.680;2022-08-18T22:19:03;8.73;;;5.33;;
8538;SDS011;4307;53.868;11.680;2022-08-18T22:21:38;6.50;;;4.60;;
8538;SDS011;4307;53.868;11.680;2022-08-18T22:24:07;7.90;;;4.73;;
8538;SDS011;4307;53.868;11.680;2022-08-18T22:26:43;8.30;;;6.17;;
8538;SDS011;4307;53.868;11.680;2022-08-18T22:29:16;10.27;;;6.40;;
8538;SDS011;4307;53.868;11.680;2022-08-18T22:31:51;7.83;;;6.60;;
8538;SDS011;4307;53.868;11.680;2022-08-18T22:34:19;8.53;;;7.10;;
8538;SDS011;4307;53.868;11.680;2022-08-18T22:36:50;7.90;;;7.10;;
8538;SDS011;4307;53.868;11.680;2022-08-18T22:39:21;7.87;;;6.10;;
8538;SDS011;4307;53.868;11.680;2022-08-18T22:41:50;7.40;;;5.87;;
8538;SDS011;4307;53.868;11.680;2022-08-18T22:44:17;8.83;;;6.97;;
8538;SDS011;4307;53.868;11.680;2022-08-18T22:46:44;8.50;;;7.07;;
8538;SDS011;4307;53.868;11.680;2022-08-18T22:49:10;10.47;;;7.47;;
8538;SDS011;4307;53.868;11.680;2022-08-18T22:51:37;8.83;;;6.77;;
8538;SDS011;4307;53.868;11.680;2022-08-18T22:54:05;10.30;;;7.87;;
8538;SDS011;4307;53.868;11.680;2022-08-18T22:56:34;12.57;;;8.73;;
8538;SDS011;4307;53.868;11.680;2022-08-18T22:59:02;10.63;;;8.53;;
8538;SDS011;4307;53.868;11.680;2022-08-18T23:01:31;10.37;;;8.93;;
8538;SDS011;4307;53.868;11.680;2022-08-18T23:03:58;13.00;;;9.60;;
8538;SDS011;4307;53.868;11.680;2022-08-18T23:06:24;12.20;;;10.27;;
8538;SDS011;4307;53.868;11.680;2022-08-18T23:08:52;15.27;;;11.43;;
8538;SDS011;4307;53.868;11.680;2022-08-18T23:11:20;13.43;;;10.70;;
8538;SDS011;4307;53.868;11.680;2022-08-18T23:13:48;12.23;;;10.93;;
8538;SDS011;4307;53.868;11.680;2022-08-18T23:16:14;14.13;;;11.53;;
8538;SDS011;4307;53.868;11.680;2022-08-18T23:18:41;15.20;;;11.10;;
8538;SDS011;4307;53.868;11.680;2022-08-18T23:21:08;12.80;;;9.70;;
8538;SDS011;4307;53.868;11.680;2022-08-18T23:23:34;10.43;;;9.33;;
8538;SDS011;4307;53.868;11.680;2022-08-18T23:26:01;11.50;;;8.97;;
8538;SDS011;4307;53.868;11.680;2022-08-18T23:28:29;16.20;;;10.83;;
8538;SDS011;4307;53.868;11.680;2022-08-18T23:30:56;16.03;;;11.30;;
8538;SDS011;4307;53.868;11.680;2022-08-18T23:33:23;12.57;;;11.17;;
8538;SDS011;4307;53.868;11.680;2022-08-18T23:35:51;13.97;;;11.37;;
8538;SDS011;4307;53.868;11.680;2022-08-18T23:38:18;17.43;;;13.03;;
8538;SDS011;4307;53.868;11.680;2022-08-18T23:40:45;18.57;;;14.57;;
8538;SDS011;4307;53.868;11.680;2022-08-18T23:43:15;21.67;;;14.77;;
8538;SDS011;4307;53.868;11.680;2022-08-18T23:45:45;23.83;;;15.70;;
8538;SDS011;4307;53.868;11.680;2022-08-18T23:48:14;18.43;;;15.80;;
8538;SDS011;4307;53.868;11.680;2022-08-18T23:50:45;19.97;;;16.10;;
8538;SDS011;4307;53.868;11.680;2022-08-18T23:53:12;21.07;;;16.87;;
8538;SDS011;4307;53.868;11.680;2022-08-18T23:55:40;19.93;;;16.83;;
8538;SDS011;4307;53.868;11.680;2022-08-18T23:58:07;21.83;;;17.17;;
